CL58 weather

Sce Southeastern Division Heliport
Santa Ana, California, United States

Public forecast

Using degrees Fahrenheit for public forecast. Weather courtesy of forecast.io.

Closest aviation weather report (METAR) to Sce Southeastern Division Heliport

Closest report is John Wayne Airport-Orange County Airport, 3.5 nm (6.4 km) SSW. Retrieved 2020/07/09 16:53 UTC (32 minutes ago):

KSNA 091653Z 23003KT 10SM FEW017 22/15 A2990 RMK AO2 SLP124 T02170150

Closest aviation forecast (TAF) to Sce Southeastern Division Heliport

Closest forecast is John Wayne Airport-Orange County Airport, 3.5 nm (6.4 km) SSW. Retrieved 2020/07/09 12:22 UTC (5 hours ago):

TAF KSNA 091120Z 0912/1012 VRB04KT P6SM OVC011 FM091600 VRB04KT P6SM SCT015 FM092000 22008KT P6SM FEW015 FM100200 VRB05KT P6SM SCT012 FM100800 VRB04KT P6SM BKN010